NCAR-RAP Real-Time Weather Data

Output produced by METARs form (01 October 2022  04:41 UTC)
found at http://weather.rap.ucar.edu/surface/
 
VVPQ 010430Z 26007KT 9000 SCT015 SCT040 28/24 Q1009 NOSIG
VVPQ 010400Z 26006KT 9000 SCT015 FEW017CB 28/24 Q1010 NOSIG CB/NE
VVPQ 010330Z 24008KT 9000 SCT015 FEW017CB 27/25 Q1010 NOSIG CB/NE
VVPQ 010300Z 24008KT 9000 -RA SCT015 FEW017CB 27/25 Q1011 NOSIG CB/NE
VVPQ 010230Z 24008KT 220V280 9000 -RA SCT015 FEW017CB 27/25 Q1011 NOSIG CB/SW
VVPQ 010200Z 23006KT 170V250 8000 -RA SCT015 FEW017CB 26/25 Q1010 NOSIG CB/SW
VVPQ 010130Z 24009KT 9000 -RA SCT015 FEW017CB 29/24 Q1010 NOSIG CB/NE
VVPQ 010100Z 25008KT 9999 SCT015 FEW017CB 27/24 Q1010 NOSIG CB/N/S
VVPQ 010030Z 27008KT 9999 SCT015 FEW017CB 27/24 Q1009 NOSIG CB/N/S
VVPQ 010000Z 26007KT 9999 SCT015 FEW017CB 27/24 Q1009 NOSIG CB/S
VVPQ 302330Z 26012KT 9999 SCT015 27/25 Q1008 NOSIG
VVPQ 302300Z 24007KT 9999 SCT015 27/25 Q1008 NOSIG
VVPQ 302230Z 24007KT 9999 SCT015 27/25 Q1008 NOSIG
VVPQ 302200Z 24004KT 9999 SCT015 27/25 Q1008 NOSIG
VVPQ 302130Z 22006KT 9999 SCT015 27/25 Q1008 NOSIG
VVPQ 302100Z 23006KT 9999 SCT015 27/25 Q1008 NOSIG
VVPQ 302030Z VRB02KT 9999 SCT015 28/25 Q1008 NOSIG
VVPQ 302000Z 22007KT 9999 SCT015 28/25 Q1008 NOSIG
VVPQ 301930Z 23008KT 9999 SCT015 28/25 Q1008 NOSIG
VVPQ 301900Z 23008KT 9999 SCT015 28/25 Q1008 NOSIG
VVPQ 301830Z 23008KT 9999 SCT015 28/25 Q1008 NOSIG
VVPQ 301800Z 22008KT 9999 SCT015 28/25 Q1009 NOSIG
VVPQ 301730Z 22007KT 9999 SCT015 28/25 Q1009 NOSIG
VVPQ 301700Z 24005KT 9999 SCT015 28/25 Q1009 NOSIG